Station: Clare

  Atmospheric Gas Attenuation - ITU Rec 676-11   --------------- db/100km ---------------
Date Time Temp RH % AH g/m3 Dew Point Wind Direction Speed kph Gust kph Barometer mB Rainfall Since 9am 24GHz 47GHz 76GHz 122GHz 134GHz 241GHz
17 01:20 3.5 99 6.09 3.4 0 0 1021.7 0 14.6 25.0 34.7 90.6 76.7 261.1
17 01:10 3.8 99 6.22 3.7 0 0 1021.8 0 14.9 25.2 35.1 91.7 78.2 266.4
17 01:00 3.9 99 6.26 3.8 0 0 1022.3 0 15.0 25.2 35.3 92.1 78.7 268.1
17 00:50 4.2 99 6.38 4.1 0 0 1022 0 15.2 25.3 35.6 93.1 80.1 272.9
17 00:40 4.2 99 6.38 4.1 0 0 1022 0 15.2 25.3 35.6 93.1 80.1 272.9
17 00:30 4.1 99 6.34 4 0 0 1022.5 0 15.2 25.3 35.5 92.8 79.7 271.4
17 00:20 4.1 99 6.34 4 0 0 1022.1 0 15.2 25.3 35.5 92.7 79.6 271.3
17 00:10 4.4 99 6.47 4.3 0 0 1022.3 0 15.4 25.4 35.9 93.9 81.1 276.6
17 00:00 4.2 99 6.38 4.1 0 0 1022.9 0 15.2 25.4 35.7 93.2 80.1 273.1
16 23:50 4.2 99 6.38 4.1 0 0 1022.5 0 15.2 25.3 35.6 93.1 80.1 273.0
16 23:40 4.2 99 6.38 4.1 0 0 1022.4 0 15.2 25.3 35.6 93.1 80.1 273.0
16 23:30 4.1 99 6.34 4 0 0 1023.1 0 15.2 25.3 35.5 92.8 79.7 271.5
16 23:20 4.3 99 6.43 4.2 0 0 1022.6 0 15.3 25.4 35.8 93.6 80.7 275.1
16 23:10 4.1 99 6.34 4 0 0 1022.6 0 15.2 25.3 35.5 92.8 79.7 271.4
16 23:00 4.5 99 6.51 4.4 0 0 1023.3 0 15.5 25.5 36.1 94.3 81.7 278.4
16 22:50 4.3 99 6.43 4.2 0 0 1022.6 0 15.3 25.4 35.8 93.6 80.7 275.1
16 22:40 4.1 99 6.34 4 0 0 1022.7 0 15.2 25.3 35.5 92.8 79.7 271.4
16 22:30 3.8 99 6.22 3.7 0 0 1023.4 0 14.9 25.2 35.2 91.9 78.4 266.8
16 22:20 4.2 99 6.38 4.1 0 2 1022.9 0 15.2 25.4 35.7 93.2 80.1 273.1
16 22:10 5 99 6.73 4.9 6 7 1022.9 0 16.0 25.7 36.8 96.1 84.2 287.3
16 22:00 4 99 6.3 3.9 0 0 1023.6 0 15.1 25.3 35.4 92.6 79.3 270.0
16 21:50 3.9 99 6.26 3.8 0 0 1023.1 0 15.0 25.2 35.3 92.2 78.8 268.3
16 21:40 4.2 99 6.38 4.1 0 0 1023.1 0 15.2 25.4 35.7 93.2 80.2 273.1
16 21:30 4 99 6.3 3.9 2 7 1023.7 0 15.1 25.3 35.4 92.6 79.3 270.0
16 21:20 4.2 99 6.38 4.1 7 7 1023.1 0 15.2 25.4 35.7 93.2 80.2 273.1
16 21:10 4.4 99 6.47 4.3 6 6 1023.3 0 15.4 25.5 36.0 94.0 81.2 276.8
16 21:00 4.3 99 6.43 4.2 0 0 1023.8 0 15.3 25.4 35.9 93.7 80.8 275.4
16 20:50 4.2 99 6.38 4.1 0 0 1023.1 0 15.2 25.4 35.7 93.2 80.2 273.1
16 20:40 4.5 99 6.51 4.4 0 0 1023.3 0 15.5 25.5 36.1 94.3 81.7 278.4
16 20:30 4.6 99 6.56 4.5 0 4 1023.9 0 15.6 25.6 36.3 94.8 82.3 280.7
16 20:20 4.9 99 6.69 4.8 4 6 1023.4 0 15.9 25.7 36.7 95.9 83.8 285.8
16 20:10 5.1 99 6.78 5 0 0 1023.5 0 16.1 25.8 37.0 96.6 84.8 289.5
16 20:00 5.4 99 6.91 5.3 0 0 1023.9 0 16.3 25.9 37.4 97.8 86.3 294.9
16 19:50 5.6 99 7 5.5 0 0 1023.3 0 16.5 26.0 37.7 98.5 87.3 298.4
16 19:40 5.9 99 7.14 5.8 0 0 1023.3 0 16.8 26.2 38.1 99.7 88.9 304.1
16 19:30 6 97 7.04 5.6 0 0 1023.8 0 16.6 26.0 37.7 98.5 87.4 298.9
16 19:20 6.3 95 7.04 5.6 0 0 1023 0 16.6 25.9 37.5 98.0 87.0 297.6
16 19:10 6.4 92 6.86 5.2 0 0 1023 0 16.2 25.5 36.7 95.9 84.4 288.5
16 19:00 6.8 89 6.81 5.1 0 0 1023.6 0 16.1 25.4 36.3 94.9 83.4 284.7
16 18:50 7.2 89 6.99 5.5 0 0 1022.9 0 16.4 25.5 36.8 96.3 85.3 291.7
16 18:40 7.5 87 6.97 5.5 0 0 1022.9 0 16.4 25.4 36.6 95.7 84.7 289.6
16 18:30 7.9 85 6.98 5.5 0 0 1023.4 0 16.4 25.3 36.5 95.4 84.5 288.8
16 18:20 8.5 84 7.17 6 0 0 1022.8 0 16.8 25.4 37.0 96.7 86.3 295.4
16 18:10 8.9 82 7.19 6 0 0 1022.8 0 16.8 25.4 36.9 96.4 86.2 294.8
16 18:00 9.4 79 7.15 5.9 0 0 1023.3 0 16.7 25.2 36.5 95.4 85.1 291.2
16 17:50 9.9 77 7.19 6.1 0 0 1022.6 0 16.7 25.1 36.4 95.2 85.0 291.1
16 17:40 10.4 74 7.13 6 0 0 1022.5 0 16.6 24.8 35.9 93.9 83.7 286.4
16 17:30 11.3 71 7.24 6.2 0 0 1022.9 0 16.8 24.8 36.0 94.1 84.2 288.3
16 17:20 12.2 65 7.01 5.8 0 0 1022.4 0 16.3 24.1 34.7 90.6 80.2 274.6
16 17:10 13.4 60 6.98 5.8 0 0 1022.4 0 16.1 23.8 34.0 88.9 78.7 269.1
16 17:00 14.4 57 7.05 6 2 6 1022.9 0 16.3 23.6 33.9 88.6 78.6 269.0
16 16:50 14.8 56 7.09 6.1 0 0 1022.4 0 16.3 23.6 33.9 88.5 78.6 269.3
16 16:40 14.7 56 7.05 6 6 6 1022.5 0 16.2 23.6 33.8 88.2 78.2 267.9
16 16:30 14.8 55 6.97 5.9 7 9 1023.1 0 16.1 23.4 33.4 87.3 77.2 264.2
16 16:20 14.9 55 7.01 6 6 7 1022.4 0 16.2 23.4 33.5 87.6 77.5 265.5
16 16:10 15.1 53 6.84 5.6 7 9 1022.5 0 15.8 23.1 32.8 85.7 75.3 257.5
16 16:00 15.3 51 6.66 5.2 7 9 1022.9 0 15.4 22.8 32.1 83.7 72.9 249.3
16 15:50 15.3 52 6.79 5.5 9 9 1022.4 0 15.7 23.0 32.5 85.0 74.5 254.7
16 15:40 15.5 51 6.74 5.4 7 9 1022.4 0 15.6 22.9 32.3 84.2 73.7 251.9
16 15:30 15.6 51 6.78 5.5 6 11 1022.9 0 15.6 22.9 32.4 84.6 74.1 253.4
16 15:20 15.4 49 6.44 4.8 7 7 1022.4 0 14.9 22.5 31.2 81.4 70.1 239.6
16 15:10 15.3 49 6.4 4.7 7 9 1022.4 0 14.8 22.4 31.1 81.1 69.8 238.2
16 15:00 15.4 50 6.57 5 7 11 1023.1 0 15.2 22.7 31.7 82.8 71.8 245.2
16 14:50 15.4 48 6.31 4.5 7 9 1022.4 0 14.7 22.3 30.8 80.2 68.6 234.1
16 14:40 15.2 48 6.23 4.3 4 6 1022.4 0 14.5 22.2 30.5 79.6 67.8 231.3
16 14:30 15.2 50 6.49 4.9 7 9 1022.9 0 15.0 22.6 31.5 82.2 71.0 242.4
16 14:20 15.2 51 6.62 5.1 6 9 1022.5 0 15.3 22.8 32.0 83.4 72.5 247.8
16 14:10 15.1 53 6.84 5.6 7 9 1022.5 0 15.8 23.1 32.8 85.7 75.3 257.5
16 14:00 15.2 48 6.23 4.3 6 9 1023.3 0 14.5 22.2 30.6 79.7 67.9 231.5
16 13:50 15 51 6.54 5 7 9 1022.7 0 15.2 22.7 31.8 82.8 71.7 245.1
16 13:40 14.7 53 6.67 5.2 9 9 1022.8 0 15.4 23.0 32.4 84.4 73.6 251.5
16 13:30 14.5 53 6.59 5 9 11 1023.3 0 15.3 22.9 32.2 83.9 72.8 248.8
16 13:20 14.6 53 6.63 5.1 7 9 1022.9 0 15.4 23.0 32.2 84.2 73.2 250.2
16 13:10 14.6 58 7.26 6.4 9 13 1023 0 16.7 23.9 34.6 90.5 81.0 277.5
16 13:00 14.5 55 6.84 5.6 7 17 1023.9 0 15.8 23.3 33.1 86.4 75.9 259.7
16 12:50 13.8 52 6.2 4.1 9 11 1023.5 0 14.5 22.5 31.0 80.8 68.7 234.3
16 12:40 13.7 53 6.28 4.3 11 13 1023.6 0 14.7 22.7 31.3 81.7 69.8 238.0
16 12:30 13.9 57 6.83 5.5 9 15 1024.4 0 15.8 23.5 33.3 87.0 76.4 261.4
16 12:20 13.5 54 6.32 4.4 11 11 1024 0 14.7 22.8 31.6 82.3 70.5 240.4
16 12:10 13.2 57 6.55 4.9 7 9 1024.2 0 15.2 23.2 32.6 84.9 73.6 251.4
16 12:00 13.1 57 6.5 4.8 13 19 1024.9 0 15.1 23.2 32.4 84.6 73.1 249.6
16 11:50 13.3 54 6.24 4.2 13 17 1024.6 0 14.6 22.8 31.4 81.8 69.7 237.7
16 11:40 13.2 52 5.97 3.6 13 15 1024.7 0 14.0 22.4 30.4 79.2 66.5 226.5
16 11:30 13.3 54 6.24 4.2 13 19 1025.4 0 14.6 22.8 31.4 81.9 69.8 237.9
16 11:20 13.2 54 6.2 4.1 13 15 1024.8 0 14.5 22.7 31.3 81.5 69.3 236.3
16 11:10 13.1 51 5.82 3.2 13 17 1025 0 13.7 22.2 29.9 77.9 64.8 220.4
16 11:00 13.1 53 6.05 3.7 9 15 1025.6 0 14.2 22.6 30.8 80.2 67.6 230.3
16 10:50 12.6 54 5.97 3.5 11 13 1025.1 0 14.0 22.5 30.7 79.9 67.0 228.2
16 10:40 12.4 57 6.23 4.1 15 19 1025.2 0 14.6 23.0 31.7 82.7 70.4 240.1
16 10:30 11.8 57 6 3.6 13 17 1025.8 0 14.1 22.8 31.1 81.0 68.1 232.0
16 10:20 11.6 57 5.93 3.4 11 13 1025.1 0 14.0 22.7 30.9 80.5 67.4 229.4
16 10:10 11.5 60 6.2 4 7 7 1025.1 0 14.6 23.2 31.9 83.3 70.8 241.4
16 10:00 11.1 67 6.75 5.2 7 13 1025.7 0 15.8 24.2 34.3 89.4 78.2 267.4
16 09:50 10.8 66 6.52 4.7 4 6 1025.1 0 15.3 23.9 33.5 87.3 75.5 257.9
16 09:40 10.1 68 6.43 4.5 6 7 1025.1 0 15.1 23.9 33.4 87.1 75.1 256.1
16 09:30 9.4 66 5.97 3.4 6 9 1025.6 0 14.2 23.4 31.9 83.2 69.8 237.6
16 09:20 9 65 5.73 2.8 2 9 1025 0 13.7 23.1 31.1 81.0 67.1 228.0
16 09:10 8.5 74 6.32 4.1 0 0 1024.9 0 14.9 24.1 33.6 87.7 75.2 256.2
16 09:00 7.2 96 7.54 6.6 0 0 1025.4 0 17.6 26.5 39.3 102.8 93.1 319.0
16 08:50 5.4 99 6.91 5.3 0 0 1024.7 0.2 16.3 26.0 37.4 97.9 86.4 295.0

Last Refresh: 17-Jul-2020 01:31:57

Most of the information presented on this site is sourced from the Bureau of Meteorology.  Copyright in all material sourced from the Bureau of Meteorology resides with the Commonwealth of Australia.